Time;durP1;ratioP1;P1;durP2;ratioP2;P2;SDS_P1;SDS_P2;PMS_P1;PMS_P2;Temp;Humidity;BMP_temperature;BMP_pressure;BME280_temperature;BME280_humidity;BME280_pressure;Samples;Min_cycle;Max_cycle;Signal;HPM_P1;HPM_P2
2021/07/30 00:02:12;;;;;;;11.20;4.73;;;14.50;85.30;;;;;;5112763;28;20055;-65
2021/07/30 00:04:37;;;;;;;10.53;4.90;;;14.50;85.50;;;;;;5113354;28;20416;-65
2021/07/30 00:07:03;;;;;;;12.77;5.30;;;14.50;85.60;;;;;;5112267;28;20055;-65
2021/07/30 00:09:29;;;;;;;12.90;5.07;;;14.40;85.70;;;;;;5113292;28;20051;-65
2021/07/30 00:11:55;;;;;;;11.77;5.03;;;14.40;85.90;;;;;;5113010;28;20499;-65
2021/07/30 00:14:21;;;;;;;13.20;4.90;;;14.40;86.10;;;;;;5111978;28;20052;-64
2021/07/30 00:16:47;;;;;;;15.70;4.67;;;14.30;86.10;;;;;;5113016;28;20062;-65
2021/07/30 00:19:12;;;;;;;13.60;5.00;;;14.30;86.30;;;;;;5112952;28;20047;-65
2021/07/30 00:21:38;;;;;;;12.57;5.37;;;14.30;86.40;;;;;;5112275;28;20138;-65
2021/07/30 00:24:04;;;;;;;8.80;4.80;;;14.20;86.40;;;;;;5112412;28;20044;-65
2021/07/30 00:26:30;;;;;;;12.00;5.23;;;14.20;86.60;;;;;;5112973;28;20051;-65
2021/07/30 00:28:55;;;;;;;9.90;4.73;;;14.20;86.60;;;;;;5112005;28;20043;-65
2021/07/30 00:31:21;;;;;;;15.37;5.40;;;14.20;86.70;;;;;;5112673;28;20106;-65
2021/07/30 00:33:47;;;;;;;12.87;5.63;;;14.20;86.80;;;;;;5112239;28;20404;-65
2021/07/30 00:36:12;;;;;;;10.13;5.40;;;14.20;86.80;;;;;;5112557;28;20059;-65
2021/07/30 00:38:38;;;;;;;19.20;5.40;;;14.20;87.80;;;;;;5112923;28;20039;-65
2021/07/30 00:41:04;;;;;;;11.13;5.57;;;14.20;87.00;;;;;;5111692;28;20058;-65
2021/07/30 00:43:30;;;;;;;14.30;6.50;;;14.10;86.90;;;;;;5112632;28;20043;-64
2021/07/30 00:45:57;;;;;;;10.53;5.80;;;14.10;86.90;;;;;;5112561;28;20232;-65
2021/07/30 00:48:24;;;;;;;12.83;5.77;;;14.10;86.90;;;;;;5111570;28;20047;-65
2021/07/30 00:50:50;;;;;;;14.27;5.93;;;14.10;86.90;;;;;;5112702;28;20263;-64
2021/07/30 00:53:17;;;;;;;11.27;5.87;;;14.10;87.10;;;;;;5112469;28;20046;-65
2021/07/30 00:55:44;;;;;;;10.73;5.70;;;14.10;87.00;;;;;;5111866;28;20052;-65
2021/07/30 00:58:11;;;;;;;15.13;6.67;;;14.10;87.20;;;;;;5112412;28;20094;-64
2021/07/30 01:00:37;;;;;;;11.63;5.77;;;14.10;87.30;;;;;;5112344;28;20133;-65
2021/07/30 01:03:03;;;;;;;11.33;6.50;;;14.00;87.30;;;;;;5111574;28;20052;-65
2021/07/30 01:05:30;;;;;;;15.73;6.10;;;14.00;87.30;;;;;;5112520;28;20051;-64
2021/07/30 01:08:00;;;;;;;10.30;6.33;;;14.00;87.40;;;;;;5112451;28;20043;-64
2021/07/30 01:10:26;;;;;;;14.47;6.23;;;14.00;87.40;;;;;;5113703;28;20078;-65
2021/07/30 01:12:53;;;;;;;15.90;6.83;;;13.90;87.40;;;;;;5116297;28;20048;-64
2021/07/30 01:15:19;;;;;;;14.60;7.00;;;13.90;87.50;;;;;;5116235;28;20127;-65
2021/07/30 01:17:45;;;;;;;11.33;6.03;;;13.90;87.50;;;;;;5115608;28;20123;-65
2021/07/30 01:20:12;;;;;;;13.23;6.77;;;13.90;87.60;;;;;;5116161;28;20058;-64
2021/07/30 01:22:51;;;;;;;12.53;7.03;;;13.90;87.60;;;;;;5116112;28;20484;-64
2021/07/30 01:25:18;;;;;;;15.80;6.90;;;13.90;87.60;;;;;;5115644;28;20179;-64
2021/07/30 01:27:45;;;;;;;13.87;7.27;;;13.90;87.70;;;;;;5116276;27;20040;-65
2021/07/30 01:30:12;;;;;;;13.40;6.90;;;13.80;87.60;;;;;;5115041;28;20832;-64
2021/07/30 01:32:37;;;;;;;14.10;7.03;;;13.80;87.80;;;;;;5116000;28;20052;-64
2021/07/30 01:35:03;;;;;;;12.53;7.27;;;13.80;87.90;;;;;;5115759;28;20052;-64
2021/07/30 01:37:32;;;;;;;14.67;6.53;;;13.80;87.90;;;;;;5115195;28;20131;-64
2021/07/30 01:39:57;;;;;;;14.83;7.23;;;13.80;88.10;;;;;;5115753;28;20407;-64
2021/07/30 01:42:23;;;;;;;12.40;7.27;;;13.80;88.10;;;;;;5115613;28;20067;-64
2021/07/30 01:44:51;;;;;;;14.50;8.00;;;13.80;88.20;;;;;;5115165;28;20394;-64
2021/07/30 01:47:17;;;;;;;16.10;7.03;;;13.80;88.30;;;;;;5115422;28;20407;-65
2021/07/30 01:49:43;;;;;;;12.70;7.20;;;13.70;88.40;;;;;;5115844;28;20054;-65
2021/07/30 01:52:08;;;;;;;13.73;7.23;;;13.70;88.50;;;;;;5114467;28;20052;-64
2021/07/30 01:54:34;;;;;;;13.97;7.90;;;13.70;88.50;;;;;;5115514;28;20126;-65
2021/07/30 01:56:59;;;;;;;15.47;7.63;;;13.70;88.60;;;;;;5115636;28;20086;-65
2021/07/30 01:59:25;;;;;;;14.80;8.00;;;13.70;89.50;;;;;;5114975;28;20369;-64
2021/07/30 02:01:50;;;;;;;12.90;8.00;;;13.70;88.80;;;;;;5115484;28;20043;-65
2021/07/30 02:04:18;;;;;;;13.40;7.90;;;13.70;88.90;;;;;;5115109;28;20048;-65
2021/07/30 02:06:45;;;;;;;17.03;9.13;;;13.70;88.90;;;;;;5114719;28;20126;-65
2021/07/30 02:09:11;;;;;;;15.87;8.03;;;13.70;89.10;;;;;;5115037;28;20047;-65
2021/07/30 02:11:39;;;;;;;11.87;7.70;;;13.70;89.10;;;;;;5115474;28;20126;-65
2021/07/30 02:14:15;;;;;;;13.90;8.30;;;13.70;89.20;;;;;;5114470;27;20048;-66
2021/07/30 02:16:48;;;;;;;18.43;7.53;;;13.70;89.30;;;;;;5115293;28;20052;-65
2021/07/30 02:19:17;;;;;;;16.20;8.57;;;13.70;89.40;;;;;;5114335;28;20043;-65
2021/07/30 02:21:43;;;;;;;17.43;9.77;;;13.70;89.50;;;;;;5113815;28;20123;-65
2021/07/30 02:24:09;;;;;;;15.93;9.40;;;13.70;89.60;;;;;;5114701;27;20036;-65
2021/07/30 02:26:36;;;;;;;14.03;8.40;;;13.60;89.60;;;;;;5114466;28;20054;-65
2021/07/30 02:29:06;;;;;;;17.87;8.97;;;13.60;89.70;;;;;;5114629;27;20499;-65
2021/07/30 02:31:37;;;;;;;14.97;8.47;;;13.60;89.80;;;;;;5114987;28;20058;-65
2021/07/30 02:34:07;;;;;;;17.07;8.57;;;13.60;89.90;;;;;;5113731;28;20047;-64
2021/07/30 02:36:33;;;;;;;12.83;8.97;;;13.60;90.40;;;;;;5114792;28;20484;-65
2021/07/30 02:38:58;;;;;;;12.03;8.47;;;13.60;90.00;;;;;;5114960;28;20139;-65
2021/07/30 02:41:24;;;;;;;16.50;9.50;;;13.60;90.10;;;;;;5113841;28;20048;-65
2021/07/30 02:43:50;;;;;;;13.63;8.70;;;13.60;90.10;;;;;;5114699;28;20044;-65
2021/07/30 02:46:16;;;;;;;15.77;9.17;;;13.50;90.10;;;;;;5114353;28;20050;-65
2021/07/30 02:48:46;;;;;;;10.77;8.30;;;13.60;90.10;;;;;;5113990;27;20408;-65
2021/07/30 02:51:13;;;;;;;17.43;9.77;;;13.50;90.20;;;;;;5114437;28;20185;-65
2021/07/30 02:53:40;;;;;;;14.43;8.93;;;13.50;90.20;;;;;;5114648;28;20444;-65
2021/07/30 02:56:06;;;;;;;20.50;9.33;;;13.50;90.30;;;;;;5113485;28;20052;-65
2021/07/30 02:58:31;;;;;;;18.90;9.60;;;13.50;90.30;;;;;;5113589;28;20040;-65
2021/07/30 03:01:00;;;;;;;15.30;10.60;;;13.50;90.30;;;;;;5113846;28;20047;-65
2021/07/30 03:03:26;;;;;;;16.17;9.47;;;13.50;90.40;;;;;;5113544;28;20092;-65
2021/07/30 03:05:52;;;;;;;19.67;9.93;;;13.50;90.40;;;;;;5114428;28;20081;-65
2021/07/30 03:08:18;;;;;;;20.50;9.70;;;13.50;90.40;;;;;;5113756;28;20066;-65
2021/07/30 03:10:57;;;;;;;15.60;9.67;;;13.50;90.40;;;;;;5114245;28;20075;-65
2021/07/30 03:13:23;;;;;;;12.97;8.93;;;13.50;90.90;;;;;;5113825;28;20083;-65
2021/07/30 03:15:56;;;;;;;14.53;9.57;;;13.50;90.50;;;;;;5113439;28;20055;-65
2021/07/30 03:18:22;;;;;;;17.17;9.33;;;13.40;90.60;;;;;;5113914;28;20048;-65
2021/07/30 03:20:48;;;;;;;14.30;8.57;;;13.40;90.60;;;;;;5113916;28;20059;-65
2021/07/30 03:23:14;;;;;;;15.90;9.33;;;13.40;90.60;;;;;;5112528;28;20471;-65
2021/07/30 03:25:40;;;;;;;16.23;9.53;;;13.50;90.70;;;;;;5113783;28;20054;-65
2021/07/30 03:28:05;;;;;;;15.17;9.77;;;13.40;90.70;;;;;;5113606;28;20135;-65
2021/07/30 03:30:46;;;;;;;17.23;9.73;;;13.40;90.70;;;;;;5113155;28;20059;-65
2021/07/30 03:33:12;;;;;;;19.27;9.23;;;13.40;90.70;;;;;;5113291;28;20044;-65
2021/07/30 03:35:39;;;;;;;17.83;10.07;;;13.40;90.80;;;;;;5113782;28;20093;-65
2021/07/30 03:38:05;;;;;;;13.07;10.33;;;13.50;90.80;;;;;;5112663;28;20066;-65
2021/07/30 03:40:31;;;;;;;17.47;10.53;;;13.50;90.80;;;;;;5113495;28;20047;-65
2021/07/30 03:42:57;;;;;;;18.20;10.70;;;13.40;90.90;;;;;;5113183;28;20495;-65
2021/07/30 03:45:23;;;;;;;18.10;9.70;;;13.40;90.90;;;;;;5112598;28;20075;-65
2021/07/30 03:47:49;;;;;;;18.60;10.53;;;13.40;90.90;;;;;;5113545;28;20130;-65
2021/07/30 03:50:14;;;;;;;17.23;10.80;;;13.40;91.00;;;;;;5113145;28;20051;-64
2021/07/30 03:52:41;;;;;;;19.70;10.77;;;13.40;91.00;;;;;;5112717;28;20102;-65
2021/07/30 03:55:07;;;;;;;17.83;10.80;;;13.40;91.00;;;;;;5112890;28;20130;-65
2021/07/30 03:57:33;;;;;;;22.13;10.07;;;13.40;91.50;;;;;;5112783;28;20073;-65
2021/07/30 03:59:59;;;;;;;17.60;10.23;;;13.40;91.10;;;;;;5113392;28;20039;-65
2021/07/30 04:02:25;;;;;;;19.47;10.43;;;13.40;91.10;;;;;;5113166;28;20051;-65
2021/07/30 04:04:50;;;;;;;16.53;10.17;;;13.40;91.20;;;;;;5112562;28;20051;-65
2021/07/30 04:07:16;;;;;;;18.13;11.87;;;13.40;91.30;;;;;;5112828;28;20043;-65
2021/07/30 04:09:42;;;;;;;19.07;11.13;;;13.40;91.40;;;;;;5112952;28;20122;-65
2021/07/30 04:12:09;;;;;;;17.70;10.50;;;13.30;91.40;;;;;;5111821;28;20137;-65
2021/07/30 04:14:35;;;;;;;17.83;10.03;;;13.30;91.40;;;;;;5112861;28;20079;-65
2021/07/30 04:17:01;;;;;;;24.13;11.93;;;13.30;91.50;;;;;;5112924;28;20058;-65
2021/07/30 04:19:27;;;;;;;21.07;10.63;;;13.30;91.50;;;;;;5111654;28;20051;-64
2021/07/30 04:21:53;;;;;;;22.93;11.00;;;13.30;91.60;;;;;;5112864;28;20138;-64
2021/07/30 04:24:18;;;;;;;15.53;10.57;;;13.30;91.60;;;;;;5112138;28;20168;-64
2021/07/30 04:26:44;;;;;;;16.67;10.10;;;13.30;91.70;;;;;;5111961;28;20044;-65
2021/07/30 04:29:10;;;;;;;17.00;11.10;;;13.30;92.00;;;;;;5112572;28;20051;-65
2021/07/30 04:31:40;;;;;;;18.33;10.77;;;13.30;91.70;;;;;;5112498;28;20067;-65
2021/07/30 04:34:07;;;;;;;20.00;10.57;;;13.30;92.20;;;;;;5111746;28;20050;-65
2021/07/30 04:36:33;;;;;;;19.20;10.77;;;13.30;91.80;;;;;;5112366;28;20055;-65
2021/07/30 04:38:58;;;;;;;17.33;10.70;;;13.30;91.70;;;;;;5112598;28;20408;-65
2021/07/30 04:41:24;;;;;;;20.63;11.07;;;13.30;91.70;;;;;;5111472;28;20044;-65
2021/07/30 04:43:50;;;;;;;17.80;10.37;;;13.30;91.70;;;;;;5112850;28;20122;-65
2021/07/30 04:46:19;;;;;;;18.70;10.97;;;13.30;91.70;;;;;;5118258;28;20048;-65
2021/07/30 04:48:45;;;;;;;15.53;10.40;;;13.30;91.80;;;;;;5118772;27;20122;-65
2021/07/30 04:51:14;;;;;;;15.60;10.80;;;13.30;91.80;;;;;;5118531;27;20079;-64
2021/07/30 04:53:40;;;;;;;20.47;11.17;;;13.30;91.80;;;;;;5119297;27;20043;-65
2021/07/30 04:56:05;;;;;;;18.53;10.70;;;13.40;91.80;;;;;;5118533;27;20395;-65
2021/07/30 04:58:31;;;;;;;19.97;11.20;;;13.40;91.80;;;;;;5119453;27;20050;-64
2021/07/30 05:00:57;;;;;;;18.70;10.30;;;13.40;92.20;;;;;;5118521;28;20044;-64
2021/07/30 05:03:22;;;;;;;14.77;10.07;;;13.40;91.80;;;;;;5118577;28;20464;-65
2021/07/30 05:05:48;;;;;;;21.57;11.63;;;13.40;91.70;;;;;;5118626;28;20058;-65
2021/07/30 05:08:14;;;;;;;19.47;11.80;;;13.40;91.70;;;;;;5117535;27;20036;-65
2021/07/30 05:10:40;;;;;;;16.67;9.90;;;13.50;91.80;;;;;;5119499;28;20056;-64
2021/07/30 05:13:06;;;;;;;21.13;11.43;;;13.50;91.70;;;;;;5118711;28;20043;-64
2021/07/30 05:15:31;;;;;;;17.90;10.20;;;13.50;91.70;;;;;;5118358;28;20551;-65
2021/07/30 05:18:01;;;;;;;16.80;10.00;;;13.50;91.70;;;;;;5118482;28;20093;-65
2021/07/30 05:20:38;;;;;;;16.70;10.20;;;13.60;91.80;;;;;;5118784;28;20122;-64
2021/07/30 05:23:04;;;;;;;16.60;10.17;;;13.60;91.70;;;;;;5117933;28;20126;-65
2021/07/30 05:25:29;;;;;;;17.20;10.30;;;13.70;91.70;;;;;;5118794;28;20476;-65
2021/07/30 05:27:55;;;;;;;16.63;10.23;;;13.70;91.60;;;;;;5118338;28;20079;-65
2021/07/30 05:30:22;;;;;;;18.50;9.93;;;13.80;91.60;;;;;;5114354;28;20545;-64
2021/07/30 05:32:48;;;;;;;16.70;9.87;;;13.90;91.60;;;;;;5117926;28;20051;-64
2021/07/30 05:35:13;;;;;;;15.83;9.77;;;14.10;91.70;;;;;;5117914;28;20048;-65
2021/07/30 05:37:39;;;;;;;17.10;9.63;;;14.50;91.40;;;;;;5116775;28;20074;-65
2021/07/30 05:40:05;;;;;;;15.40;10.40;;;15.10;90.90;;;;;;5117735;27;20092;-65
2021/07/30 05:42:31;;;;;;;19.00;9.43;;;15.40;89.60;;;;;;5117779;27;20390;-65
2021/07/30 05:44:57;;;;;;;13.87;9.77;;;15.40;89.00;;;;;;5116286;28;20035;-65
2021/07/30 05:47:23;;;;;;;15.77;8.63;;;15.30;89.10;;;;;;5117206;27;20048;-65
2021/07/30 05:49:48;;;;;;;15.00;9.13;;;15.20;89.30;;;;;;5117710;28;20108;-64
2021/07/30 05:52:14;;;;;;;12.67;8.80;;;15.10;89.20;;;;;;5116594;28;20048;-65
2021/07/30 05:54:40;;;;;;;17.80;9.40;;;15.10;89.50;;;;;;5117943;28;20115;-65
2021/07/30 05:57:06;;;;;;;15.07;8.87;;;15.10;89.80;;;;;;5114540;28;20046;-65
2021/07/30 05:59:32;;;;;;;17.63;9.33;;;15.20;90.20;;;;;;5114466;28;20051;-65
2021/07/30 06:01:57;;;;;;;14.20;8.53;;;15.50;89.90;;;;;;5113544;28;20408;-65
2021/07/30 06:04:23;;;;;;;13.70;8.20;;;15.70;88.20;;;;;;5113050;28;20159;-65
2021/07/30 06:06:49;;;;;;;16.60;8.60;;;15.60;88.00;;;;;;5114599;28;20048;-65
2021/07/30 06:09:15;;;;;;;14.03;7.93;;;15.60;88.20;;;;;;5113845;28;20491;-64
2021/07/30 06:11:40;;;;;;;21.17;9.57;;;15.50;88.20;;;;;;5113517;28;20048;-64
2021/07/30 06:14:06;;;;;;;14.80;8.80;;;15.60;88.20;;;;;;5113813;28;20503;-64
2021/07/30 06:16:32;;;;;;;16.00;8.27;;;15.60;88.20;;;;;;5114384;28;20059;-64
2021/07/30 06:18:58;;;;;;;15.60;8.00;;;15.60;88.10;;;;;;5112446;28;20093;-65
2021/07/30 06:21:23;;;;;;;19.60;8.83;;;15.70;88.30;;;;;;5113862;28;20048;-65
2021/07/30 06:23:49;;;;;;;14.67;7.90;;;15.70;88.30;;;;;;5113673;28;20052;-65
2021/07/30 06:26:15;;;;;;;12.77;7.97;;;15.70;88.20;;;;;;5113083;28;20077;-64
2021/07/30 06:28:40;;;;;;;15.33;8.20;;;15.70;88.20;;;;;;5113628;28;20035;-64
2021/07/30 06:31:06;;;;;;;17.83;7.57;;;15.80;88.40;;;;;;5113506;28;20040;-64
2021/07/30 06:33:32;;;;;;;15.40;8.43;;;15.80;88.60;;;;;;5112730;28;20066;-64
2021/07/30 06:35:58;;;;;;;19.07;8.33;;;15.90;88.50;;;;;;5112956;28;20035;-64
2021/07/30 06:38:24;;;;;;;16.83;8.27;;;15.90;88.50;;;;;;5113326;28;20050;-64
2021/07/30 06:40:49;;;;;;;12.33;7.80;;;16.00;88.60;;;;;;5113101;28;20080;-64
2021/07/30 06:43:16;;;;;;;14.33;8.23;;;16.00;88.50;;;;;;5112787;28;20456;-64
2021/07/30 06:45:44;;;;;;;14.67;7.73;;;16.10;88.50;;;;;;5113703;28;20165;-64
2021/07/30 06:48:10;;;;;;;15.13;8.53;;;16.10;88.40;;;;;;5112063;28;20105;-64
2021/07/30 06:50:35;;;;;;;17.70;7.70;;;16.20;88.10;;;;;;5113509;28;20040;-64
2021/07/30 06:53:01;;;;;;;18.43;8.50;;;16.20;87.80;;;;;;5112973;28;20043;-64
2021/07/30 06:55:27;;;;;;;14.63;7.97;;;16.20;87.80;;;;;;5112751;28;20036;-64
2021/07/30 06:57:52;;;;;;;14.70;7.40;;;16.30;87.90;;;;;;5113146;28;20448;-64
2021/07/30 07:00:18;;;;;;;16.87;7.30;;;16.40;87.90;;;;;;5113125;28;20059;-64
2021/07/30 07:02:44;;;;;;;12.87;7.40;;;16.40;87.80;;;;;;5112195;28;20044;-64
2021/07/30 07:05:10;;;;;;;13.37;7.73;;;16.40;87.60;;;;;;5113347;28;20130;-65
2021/07/30 07:07:35;;;;;;;14.67;7.93;;;16.50;87.70;;;;;;5112284;28;20499;-65
2021/07/30 07:10:01;;;;;;;17.67;8.07;;;16.50;87.50;;;;;;5100506;28;20047;-66
2021/07/30 07:12:27;;;;;;;18.73;7.47;;;16.60;88.40;;;;;;5103127;28;20121;-65
2021/07/30 07:14:53;;;;;;;15.07;7.63;;;16.60;87.50;;;;;;5103378;28;20048;-64
2021/07/30 07:17:19;;;;;;;14.67;7.43;;;16.70;87.70;;;;;;5109990;28;20063;-64
2021/07/30 07:19:46;;;;;;;16.97;7.37;;;16.80;87.60;;;;;;5112460;28;20104;-64
2021/07/30 07:22:12;;;;;;;16.80;8.07;;;16.80;87.30;;;;;;5112302;28;20054;-64
2021/07/30 07:24:40;;;;;;;13.00;7.53;;;16.90;87.50;;;;;;5113288;28;20052;-64
2021/07/30 07:27:07;;;;;;;14.30;7.43;;;17.00;87.80;;;;;;5113087;28;20044;-64
2021/07/30 07:29:33;;;;;;;17.57;8.27;;;17.10;87.40;;;;;;5112943;28;20130;-64
2021/07/30 07:32:00;;;;;;;16.90;8.10;;;17.20;87.00;;;;;;5113647;28;20449;-64
2021/07/30 07:34:26;;;;;;;16.73;7.13;;;17.20;86.70;;;;;;5113126;28;20549;-64
2021/07/30 07:36:52;;;;;;;14.30;7.67;;;17.30;86.60;;;;;;5113117;28;20407;-65
2021/07/30 07:39:18;;;;;;;13.70;6.83;;;17.30;86.30;;;;;;5113355;28;20055;-65
2021/07/30 07:41:44;;;;;;;14.27;7.30;;;17.40;85.80;;;;;;5113373;28;20108;-64
2021/07/30 07:44:14;;;;;;;13.80;6.80;;;17.50;85.40;;;;;;5112502;28;20043;-65
2021/07/30 07:46:40;;;;;;;17.67;6.90;;;17.60;84.70;;;;;;5113335;28;20070;-65
2021/07/30 07:49:06;;;;;;;17.10;7.53;;;17.60;84.60;;;;;;5112965;28;20043;-65
2021/07/30 07:51:31;;;;;;;16.97;6.67;;;17.60;84.50;;;;;;5112501;28;20108;-65
2021/07/30 07:54:00;;;;;;;25.90;11.37;;;17.70;84.50;;;;;;5113129;28;20429;-65
2021/07/30 07:56:25;;;;;;;21.30;8.80;;;17.70;84.60;;;;;;5113055;28;20173;-65
2021/07/30 07:58:51;;;;;;;15.23;7.83;;;17.70;84.70;;;;;;5112077;28;20130;-65
2021/07/30 08:01:16;;;;;;;15.00;7.53;;;17.80;84.40;;;;;;5112297;28;20079;-65
2021/07/30 08:03:44;;;;;;;17.63;7.73;;;17.80;83.70;;;;;;5112160;28;20054;-65
2021/07/30 08:06:16;;;;;;;15.40;7.87;;;17.80;83.90;;;;;;5112824;28;20048;-65
2021/07/30 08:08:41;;;;;;;13.38;7.93;;;17.80;83.80;;;;;;5111958;28;20040;-65
2021/07/30 08:11:07;;;;;;;13.10;7.13;;;17.80;83.80;;;;;;5110654;28;20058;-65
2021/07/30 08:13:32;;;;;;;13.07;7.13;;;17.90;83.50;;;;;;5112134;28;20066;-65
2021/07/30 08:15:58;;;;;;;14.90;7.73;;;17.90;83.50;;;;;;5112489;28;20488;-65
2021/07/30 08:18:23;;;;;;;12.23;7.77;;;18.00;83.20;;;;;;5111849;28;20126;-65
2021/07/30 08:20:49;;;;;;;16.57;7.93;;;18.10;83.40;;;;;;5112292;28;20475;-66
2021/07/30 08:23:15;;;;;;;15.40;7.37;;;18.30;82.80;;;;;;5112297;28;20043;-66
2021/07/30 08:25:41;;;;;;;13.57;6.87;;;18.40;82.10;;;;;;5112090;28;20071;-65
2021/07/30 08:28:06;;;;;;;17.80;7.40;;;18.50;81.30;;;;;;5112243;28;20101;-66
2021/07/30 08:30:32;;;;;;;17.23;7.10;;;18.50;80.90;;;;;;5112671;28;20474;-65
2021/07/30 08:32:58;;;;;;;13.87;6.60;;;18.50;80.80;;;;;;5112080;28;20047;-66
2021/07/30 08:35:23;;;;;;;15.40;6.97;;;18.50;80.60;;;;;;5112431;28;20043;-65
2021/07/30 08:37:49;;;;;;;13.23;6.67;;;18.60;80.30;;;;;;5112494;28;20062;-66
2021/07/30 08:40:15;;;;;;;16.80;6.37;;;18.60;80.50;;;;;;5111171;28;20040;-65
2021/07/30 08:42:41;;;;;;;15.67;6.83;;;18.70;80.90;;;;;;5112244;28;20047;-66
2021/07/30 08:45:07;;;;;;;14.50;6.60;;;18.90;80.10;;;;;;5112071;28;20105;-65
2021/07/30 08:47:33;;;;;;;11.73;6.13;;;19.00;79.50;;;;;;5111649;28;20048;-66
2021/07/30 08:49:59;;;;;;;14.80;6.50;;;19.10;79.40;;;;;;5112590;28;20055;-66
2021/07/30 08:52:34;;;;;;;15.13;6.50;;;19.10;78.10;;;;;;5112729;28;20044;-66
2021/07/30 08:54:59;;;;;;;13.00;6.23;;;19.20;77.60;;;;;;5111630;28;20407;-66
2021/07/30 08:57:25;;;;;;;12.60;6.07;;;19.20;77.30;;;;;;5112289;28;20047;-66
2021/07/30 08:59:50;;;;;;;12.37;6.07;;;19.20;76.40;;;;;;5111859;28;20052;-65
2021/07/30 09:02:17;;;;;;;14.33;6.60;;;19.10;75.80;;;;;;5111380;28;20054;-64
2021/07/30 09:04:43;;;;;;;13.47;5.53;;;19.10;76.20;;;;;;5112432;28;20075;-65
2021/07/30 09:07:08;;;;;;;11.60;5.97;;;19.10;76.20;;;;;;5111169;28;20075;-64
2021/07/30 09:09:34;;;;;;;15.10;5.50;;;19.00;76.00;;;;;;5111414;28;20456;-65
2021/07/30 09:12:02;;;;;;;14.83;6.23;;;19.10;74.90;;;;;;5111768;28;20051;-65
2021/07/30 09:14:46;;;;;;;13.60;5.83;;;19.10;74.10;;;;;;5111147;28;20518;-65
2021/07/30 09:17:11;;;;;;;9.67;5.13;;;19.20;73.70;;;;;;5112176;28;20048;-65
2021/07/30 09:20:03;;;;;;;11.80;5.50;;;19.20;74.10;;;;;;5112351;28;20131;-65
2021/07/30 09:22:46;;;;;;;10.10;5.20;;;19.40;73.00;;;;;;5111110;28;20109;-65
2021/07/30 09:25:11;;;;;;;10.67;6.10;;;19.50;74.10;;;;;;5111512;28;20048;-65
2021/07/30 09:27:37;;;;;;;11.60;5.70;;;19.60;73.30;;;;;;5111841;28;20058;-65
2021/07/30 09:30:14;;;;;;;11.57;5.77;;;19.70;73.70;;;;;;5110709;28;20050;-64
2021/07/30 09:32:39;;;;;;;9.40;4.93;;;19.90;73.70;;;;;;5114894;28;20134;-64
2021/07/30 09:35:07;;;;;;;8.90;5.10;;;19.90;72.90;;;;;;5115316;28;20138;-65
2021/07/30 09:37:33;;;;;;;14.47;5.83;;;19.90;71.90;;;;;;5115528;28;20057;-64
2021/07/30 09:39:58;;;;;;;9.70;4.97;;;19.90;71.40;;;;;;5115798;28;20123;-64
2021/07/30 09:42:33;;;;;;;8.83;4.80;;;20.00;71.00;;;;;;5114227;28;20454;-64
2021/07/30 09:45:02;;;;;;;11.27;5.40;;;20.00;69.90;;;;;;5115703;28;20135;-65
2021/07/30 09:47:34;;;;;;;12.93;5.57;;;20.00;70.10;;;;;;5115080;28;20130;-65
2021/07/30 09:50:03;;;;;;;9.33;5.13;;;20.10;69.80;;;;;;5114735;28;20085;-64
2021/07/30 09:52:34;;;;;;;10.63;4.87;;;20.10;70.10;;;;;;5115222;28;20108;-64
2021/07/30 09:55:03;;;;;;;10.85;5.03;;;20.20;70.60;;;;;;5115069;28;20044;-64
2021/07/30 09:57:31;;;;;;;12.67;4.67;;;20.20;68.90;;;;;;5114468;28;20050;-64
2021/07/30 10:00:03;;;;;;;10.63;4.77;;;20.20;68.60;;;;;;5115247;28;20056;-65
2021/07/30 10:02:36;;;;;;;10.30;5.10;;;20.20;68.00;;;;;;5115097;28;20104;-65
2021/07/30 10:05:10;;;;;;;8.13;4.77;;;20.20;67.50;;;;;;5114372;28;20052;-64
2021/07/30 10:07:41;;;;;;;13.23;4.87;;;20.10;67.50;;;;;;5115244;28;20047;-64
2021/07/30 10:10:28;;;;;;;10.07;5.20;;;20.10;68.00;;;;;;5114488;28;20047;-64
2021/07/30 10:13:02;;;;;;;8.70;4.87;;;20.00;68.20;;;;;;5114971;28;20468;-64
2021/07/30 10:15:29;;;;;;;10.30;4.83;;;20.10;69.00;;;;;;5114761;28;20388;-64
2021/07/30 10:17:56;;;;;;;12.17;5.07;;;20.20;69.50;;;;;;5114050;28;20051;-64
2021/07/30 10:20:24;;;;;;;11.30;5.47;;;20.30;68.90;;;;;;5114465;28;20202;-64
2021/07/30 10:23:04;;;;;;;10.50;4.77;;;20.40;68.80;;;;;;5114403;28;20081;-64
2021/07/30 10:25:42;;;;;;;10.93;5.10;;;20.40;67.80;;;;;;5113776;28;20055;-64
2021/07/30 10:28:32;;;;;;;11.97;5.03;;;20.40;67.20;;;;;;5114483;28;20109;-63
2021/07/30 10:31:05;;;;;;;8.07;4.40;;;20.40;67.80;;;;;;5114540;28;20357;-64
2021/07/30 10:33:30;;;;;;;9.87;4.53;;;20.50;66.90;;;;;;5113870;28;20075;-64
2021/07/30 10:35:57;;;;;;;10.13;4.87;;;20.60;66.40;;;;;;5114878;28;20082;-64
2021/07/30 10:38:24;;;;;;;9.17;4.83;;;20.60;66.30;;;;;;5114186;28;20059;-65
2021/07/30 10:40:58;;;;;;;9.00;4.03;;;20.70;66.80;;;;;;5113819;28;20122;-64
2021/07/30 10:43:28;;;;;;;8.53;3.87;;;20.80;66.10;;;;;;5112795;28;20067;-65
2021/07/30 10:46:08;;;;;;;11.00;4.60;;;20.90;66.00;;;;;;5113628;28;20044;-65
2021/07/30 10:48:43;;;;;;;8.77;3.90;;;20.90;63.80;;;;;;5114590;28;20066;-65
2021/07/30 10:51:18;;;;;;;7.47;4.30;;;21.00;64.00;;;;;;5114129;28;20128;-65
2021/07/30 10:54:05;;;;;;;11.50;4.13;;;21.00;64.20;;;;;;5113632;28;20047;-65
2021/07/30 10:56:31;;;;;;;7.97;4.47;;;21.00;63.20;;;;;;5114285;28;20054;-65
2021/07/30 10:58:59;;;;;;;11.17;4.80;;;21.10;64.20;;;;;;5114125;28;20052;-65
2021/07/30 11:01:28;;;;;;;11.30;4.47;;;21.10;64.40;;;;;;5113308;28;20139;-65
2021/07/30 11:03:54;;;;;;;9.93;4.27;;;21.10;64.10;;;;;;5114097;28;20161;-65
2021/07/30 11:06:30;;;;;;;9.60;3.77;;;21.00;63.90;;;;;;5113746;28;20534;-65
2021/07/30 11:11:36;;;;;;;10.53;4.83;;;21.00;62.70;;;;;;5113493;28;20127;-65
2021/07/30 11:14:06;;;;;;;10.63;4.47;;;21.00;62.90;;;;;;5112598;28;20100;-65
2021/07/30 11:16:32;;;;;;;10.60;4.93;;;20.90;63.10;;;;;;5113231;28;20055;-65
2021/07/30 11:19:01;;;;;;;6.80;3.80;;;20.90;63.10;;;;;;5113416;28;20044;-65
2021/07/30 11:21:28;;;;;;;10.70;4.93;;;20.90;63.70;;;;;;5112961;28;20055;-65
2021/07/30 11:23:54;;;;;;;11.07;5.00;;;21.00;64.50;;;;;;5113190;28;20586;-65
2021/07/30 11:26:20;;;;;;;12.27;4.80;;;21.00;64.30;;;;;;5113568;28;20104;-65
2021/07/30 11:28:55;;;;;;;10.70;4.93;;;21.10;63.70;;;;;;5112511;28;20059;-65
2021/07/30 11:31:21;;;;;;;8.40;4.40;;;21.20;62.70;;;;;;5112369;28;20043;-65
2021/07/30 11:33:47;;;;;;;8.93;4.23;;;21.20;63.20;;;;;;5112864;28;20537;-65
2021/07/30 11:36:13;;;;;;;9.32;4.55;;;21.40;63.90;;;;;;5112403;28;20135;-65
2021/07/30 11:38:50;;;;;;;10.07;4.85;;;21.50;63.70;;;;;;5113093;28;20050;-65
2021/07/30 11:41:16;;;;;;;8.02;4.13;;;21.60;61.80;;;;;;5112282;28;20052;-65
2021/07/30 11:44:06;;;;;;;8.93;4.38;;;21.70;62.30;;;;;;5111958;28;20040;-64
2021/07/30 11:46:35;;;;;;;11.60;4.80;;;21.90;62.00;;;;;;5113268;28;20138;-65
2021/07/30 11:49:02;;;;;;;9.10;4.07;;;22.00;61.80;;;;;;5111958;28;20051;-65
2021/07/30 11:51:29;;;;;;;11.75;4.90;;;22.10;61.70;;;;;;5112980;28;20048;-64
2021/07/30 11:53:56;;;;;;;8.18;4.13;;;22.10;61.30;;;;;;5112265;28;20044;-64
2021/07/30 11:56:23;;;;;;;9.30;4.00;;;22.20;61.00;;;;;;5111250;28;20484;-64
2021/07/30 11:59:02;;;;;;;9.90;5.18;;;22.10;60.50;;;;;;5112211;28;20046;-65
2021/07/30 12:01:30;;;;;;;10.25;4.60;;;22.00;62.10;;;;;;5112586;28;20529;-65
2021/07/30 12:04:12;;;;;;;12.05;4.22;;;22.00;61.90;;;;;;5112082;27;20039;-65
2021/07/30 12:06:51;;;;;;;7.70;3.92;;;22.00;61.10;;;;;;5112753;28;20047;-65
2021/07/30 12:09:18;;;;;;;5.60;3.92;;;22.00;62.50;;;;;;5112266;28;20043;-65
2021/07/30 12:11:49;;;;;;;10.23;4.80;;;22.00;62.90;;;;;;5097778;28;20066;-64
2021/07/30 12:14:15;;;;;;;11.85;4.80;;;22.10;62.80;;;;;;5096915;27;20150;-65
2021/07/30 12:16:42;;;;;;;8.07;4.05;;;22.20;63.40;;;;;;5108897;28;20138;-65
2021/07/30 12:19:07;;;;;;;9.32;4.45;;;22.30;62.10;;;;;;5106135;28;20226;-65
2021/07/30 12:21:33;;;;;;;10.13;4.03;;;22.40;61.90;;;;;;5107299;28;20511;-65
2021/07/30 12:24:07;;;;;;;7.40;3.90;;;22.60;61.60;;;;;;5107616;28;20577;-67
2021/07/30 12:26:35;;;;;;;9.32;4.68;;;22.70;61.60;;;;;;5108270;28;20043;-66
2021/07/30 12:29:03;;;;;;;11.18;3.90;;;22.80;61.70;;;;;;5107933;27;20040;-66
2021/07/30 12:31:30;;;;;;;8.05;3.90;;;23.00;60.90;;;;;;5107449;27;20134;-65
2021/07/30 12:34:19;;;;;;;9.77;3.92;;;23.10;60.70;;;;;;5107978;27;20471;-66
2021/07/30 12:36:45;;;;;;;9.77;3.95;;;23.10;59.40;;;;;;5088855;28;20762;-65
2021/07/30 12:39:11;;;;;;;8.00;3.85;;;23.10;60.00;;;;;;5087089;28;20047;-65
2021/07/30 12:41:36;;;;;;;9.70;3.97;;;23.20;60.60;;;;;;5088110;28;20136;-64